EGPKEGNH

Guest
Details From EGPK - Prestwick
To EGNH - Blackpool
Flight Number -
Tags generated
Created
Modified
Stats Distance 117 nm / 218 km
Max Altitude 8,600 ft / 2,621 m
Waypoints 3
Social Downloads 0
Likes 0
Share VATSIM

Download

Looking for another format? Having issues loading an existing format? Contact us
Advertisement - Login to hide

Notes

Basic altitude profile: - Ascent Rate: 2500ft/min - Ascent Speed: 250kts - Cruise Altitude: 35000ft - Cruise Speed: 420kts - Descent Rate: 1500ft/min - Descent Speed: 250kts Options: - Use NATs: yes - Use PACOTS: yes - Use low airways: yes - Use high airways: yes

Route

EGPK NGY EGNH

ID Type Via Altitude Latitude Longitude Leg Dist Tot Dist Heading (true) Name
O EGPK APT - 0 ft / 0 m 55.50230˚ -4.58836˚ - 0 nm - Prestwick
NGY NDB - 8,600 ft / 2,621 m 55.17750˚ -4.16861˚ 24 nm 24 nm 144° / 144° NEW GALLOWAY NDB
O EGNH APT - 0 ft / 0 m 53.77238˚ -3.03261˚ 93 nm 117 nm 154° / 155° Blackpool

Altitude Profile

Advertisement - Login to hide

EGPK

Details ICAO EGPK (PIK)
Name Prestwick
Region United Kingdom
Timezone Europe/London (UTC+0.0)
Stats Elevation 65 ft / 20 m (AMSL)
Location 55.502302° -4.588363°
Runways 2
Magnetic Variation 2.727° W

METAR

EGPK 151420Z 33006KT 9999 FEW030 05/01 Q1009

Decode

TAF

TAF TAF EGPK 151102Z 1512/1612 33008KT 9999 SCT025 PROB30 TEMPO 1603/1612 7000 SHRA BKN012

Decode

Departure Runways

ID Width Length Bearing (true) Bearing (mag) Surface Threshold Offset Overrun Length
03 148 ft / 45 m 6,534 ft / 1,992 m 23.69° 26.42° Asphalt 538 ft / 164 m 0 ft / 0 m
13 151 ft / 46 m 9,789 ft / 2,984 m 121.38° 124.11° Asphalt 817 ft / 249 m 0 ft / 0 m
21 148 ft / 45 m 6,534 ft / 1,992 m 203.71° 206.44° Asphalt 0 ft / 0 m 0 ft / 0 m
31 151 ft / 46 m 9,789 ft / 2,984 m 301.42° 304.15° Asphalt 0 ft / 0 m 0 ft / 0 m

EGNH

Details ICAO EGNH (BLK)
Name Blackpool
Region United Kingdom
Timezone Europe/London (UTC+0.0)
Stats Elevation 34 ft / 10 m (AMSL)
Location 53.772383° -3.032609°
Runways 3
Magnetic Variation 1.811° W

METAR

EGNH 151420Z 33012KT 9999 FEW039 06/03 Q1006

Decode

TAF

Not found

Destination Runways

ID Width Length Bearing (true) Bearing (mag) Surface Threshold Offset Overrun Length
07 98 ft / 30 m 4,204 ft / 1,281 m 67.79° 69.60° Asphalt 262 ft / 80 m 0 ft / 0 m
10 151 ft / 46 m 6,112 ft / 1,863 m 94.65° 96.46° Asphalt 0 ft / 0 m 0 ft / 0 m
13 75 ft / 23 m 3,034 ft / 925 m 127.37° 129.18° Asphalt 0 ft / 0 m 0 ft / 0 m
25 98 ft / 30 m 4,204 ft / 1,281 m 247.81° 249.62° Asphalt 1,936 ft / 590 m 0 ft / 0 m
28 151 ft / 46 m 6,112 ft / 1,863 m 274.67° 276.48° Asphalt 0 ft / 0 m 0 ft / 0 m
31 75 ft / 23 m 3,034 ft / 925 m 307.38° 309.19° Asphalt 0 ft / 0 m 0 ft / 0 m

Approach Navaids

Runway Type Ident Frequency Range Bearing (true) Bearing (mag) Slope Elevation
28 Localiser IBPL 108.15 MHz 18 nm / 33 km 274.64° 276.46° - 55 ft / 17 m (AMSL)
28 Glidescope IBPL 108.15 MHz 10 nm / 19 km 274.66° 276.47° 3.00° 55 ft / 17 m (AMSL)